createdAt,value
2022-08-02T00:00:09.935Z,16.40
2022-08-02T00:02:57.943Z,17.40
2022-08-02T00:05:53.423Z,17.10
2022-08-02T00:08:41.599Z,17.10
2022-08-02T00:11:29.489Z,17.10
2022-08-02T00:14:16.774Z,17.00
2022-08-02T00:17:04.617Z,17.00
2022-08-02T00:19:55.019Z,17.00
2022-08-02T00:22:47.029Z,17.00
2022-08-02T00:25:35.384Z,17.00
2022-08-02T00:28:42.317Z,17.00
2022-08-02T00:31:29.829Z,17.00
2022-08-02T00:34:29.085Z,15.50
2022-08-02T00:37:19.177Z,16.90
2022-08-02T00:40:09.164Z,16.90
2022-08-02T00:43:07.459Z,16.80
2022-08-02T00:46:03.298Z,16.90
2022-08-02T00:48:51.645Z,16.90
2022-08-02T00:51:39.564Z,16.90
2022-08-02T00:54:27.387Z,16.80
2022-08-02T00:57:16.621Z,16.90
2022-08-02T01:00:04.265Z,16.80
2022-08-02T01:02:52.137Z,17.30
2022-08-02T01:06:02.373Z,16.80
2022-08-02T01:08:47.243Z,16.70
2022-08-02T01:11:36.238Z,16.70
2022-08-02T01:14:26.396Z,16.70
2022-08-02T01:17:17.778Z,16.60
2022-08-02T01:20:10.051Z,16.80
2022-08-02T01:23:06.781Z,15.40
2022-08-02T01:26:09.564Z,16.70
2022-08-02T01:29:00.369Z,16.70
2022-08-02T01:31:50.099Z,17.40
2022-08-02T01:34:41.143Z,15.50
2022-08-02T01:37:31.376Z,16.60
2022-08-02T01:40:22.915Z,16.60
2022-08-02T01:43:12.355Z,16.60
2022-08-02T01:46:01.848Z,16.60
2022-08-02T01:48:50.281Z,16.60
2022-08-02T01:51:56.576Z,16.60
2022-08-02T01:54:44.564Z,16.10
2022-08-02T01:57:34.103Z,16.60
2022-08-02T02:00:30.766Z,15.40
2022-08-02T02:03:21.340Z,16.60
2022-08-02T02:06:11.864Z,16.50
2022-08-02T02:09:01.485Z,16.60
2022-08-02T02:12:05.800Z,16.40
2022-08-02T02:14:58.603Z,16.40
2022-08-02T02:18:13.100Z,16.40
2022-08-02T02:21:00.251Z,16.30
2022-08-02T02:23:47.478Z,16.30
2022-08-02T02:26:41.396Z,16.20
2022-08-02T02:29:44.603Z,16.80
2022-08-02T02:32:33.025Z,16.20
2022-08-02T02:35:22.836Z,17.00
2022-08-02T02:38:14.821Z,16.20
2022-08-02T02:41:03.122Z,16.10
2022-08-02T02:43:51.290Z,16.00
2022-08-02T02:46:39.254Z,16.00
2022-08-02T02:49:27.539Z,16.00
2022-08-02T02:52:16.840Z,16.70
2022-08-02T02:55:13.155Z,16.00
2022-08-02T02:58:01.241Z,16.10
2022-08-02T03:01:07.242Z,16.00
2022-08-02T03:03:58.886Z,16.00
2022-08-02T03:06:49.365Z,15.90
2022-08-02T03:09:37.275Z,15.90
2022-08-02T03:12:31.871Z,16.00
2022-08-02T03:15:20.571Z,16.10
2022-08-02T03:18:10.137Z,15.90
2022-08-02T03:20:59.896Z,15.90
2022-08-02T03:23:48.005Z,15.90
2022-08-02T03:26:35.498Z,16.40
2022-08-02T03:29:24.396Z,16.20
2022-08-02T03:32:12.650Z,16.20
2022-08-02T03:35:00.557Z,16.10
2022-08-02T03:37:50.126Z,16.10
2022-08-02T03:40:37.879Z,16.10
2022-08-02T03:43:25.504Z,16.10
2022-08-02T03:46:19.403Z,16.10
2022-08-02T03:49:08.567Z,16.10
2022-08-02T03:51:57.352Z,17.10
2022-08-02T03:54:46.055Z,16.10
2022-08-02T03:57:36.821Z,16.20
2022-08-02T04:00:25.161Z,16.20
2022-08-02T04:03:16.476Z,16.10
2022-08-02T04:06:08.285Z,16.20
2022-08-02T04:08:56.341Z,17.60
2022-08-02T04:11:44.206Z,16.80
2022-08-02T04:14:35.613Z,16.40
2022-08-02T04:17:24.578Z,16.30
2022-08-02T04:20:16.512Z,16.20
2022-08-02T04:23:05.928Z,16.60
2022-08-02T04:25:54.321Z,16.40
2022-08-02T04:28:43.947Z,16.40
2022-08-02T04:31:32.968Z,16.50
2022-08-02T04:34:20.483Z,16.50
2022-08-02T04:37:09.302Z,16.50
2022-08-02T04:40:00.965Z,16.60
2022-08-02T04:42:49.182Z,16.60
2022-08-02T04:45:37.233Z,16.30
2022-08-02T04:48:25.465Z,16.70
2022-08-02T04:51:13.525Z,16.70
2022-08-02T04:54:06.222Z,16.70
2022-08-02T04:56:57.902Z,15.80
2022-08-02T04:59:45.952Z,17.00
2022-08-02T05:02:34.102Z,17.10
2022-08-02T05:05:31.558Z,17.20
2022-08-02T05:08:19.668Z,17.50
2022-08-02T05:11:09.283Z,17.80
2022-08-02T05:13:59.299Z,17.50
2022-08-02T05:16:47.858Z,17.60
2022-08-02T05:19:35.535Z,18.40
2022-08-02T05:22:23.618Z,17.70
2022-08-02T05:25:14.695Z,17.90
2022-08-02T05:28:08.255Z,17.90
2022-08-02T05:30:58.771Z,17.80
2022-08-02T05:33:46.562Z,18.20
2022-08-02T05:36:36.713Z,17.80
2022-08-02T05:39:31.775Z,17.90
2022-08-02T05:42:20.299Z,17.90
2022-08-02T05:45:10.483Z,17.10
2022-08-02T05:47:58.385Z,18.10
2022-08-02T05:50:50.569Z,18.20
2022-08-02T05:53:40.139Z,18.20
2022-08-02T05:56:34.506Z,18.20
2022-08-02T05:59:29.428Z,18.40
2022-08-02T06:02:30.472Z,18.50
2022-08-02T06:05:26.957Z,19.60
2022-08-02T06:08:14.555Z,18.70
2022-08-02T06:11:03.719Z,18.70
2022-08-02T06:13:53.901Z,18.70
2022-08-02T06:16:44.655Z,18.80
2022-08-02T06:19:47.005Z,20.50
2022-08-02T06:22:47.140Z,19.10
2022-08-02T06:25:50.098Z,19.00
2022-08-02T06:28:39.571Z,19.00
2022-08-02T06:31:30.094Z,19.00
2022-08-02T06:34:17.627Z,19.10
2022-08-02T06:37:09.169Z,19.40
2022-08-02T06:40:00.649Z,19.10
2022-08-02T06:42:51.066Z,19.10
2022-08-02T06:45:39.513Z,19.10
2022-08-02T06:48:28.809Z,19.10
2022-08-02T06:51:17.806Z,19.10
2022-08-02T06:54:06.934Z,19.20
2022-08-02T06:56:55.373Z,19.20
2022-08-02T06:59:44.352Z,19.20
2022-08-02T07:02:36.307Z,20.50
2022-08-02T07:05:24.374Z,19.30
2022-08-02T07:08:12.066Z,19.50
2022-08-02T07:11:04.261Z,19.60
2022-08-02T07:13:54.928Z,19.80
2022-08-02T07:16:43.129Z,19.90
2022-08-02T07:19:37.418Z,20.40
2022-08-02T07:22:27.418Z,20.10
2022-08-02T07:25:15.824Z,20.20
2022-08-02T07:28:06.595Z,20.90
2022-08-02T07:30:54.735Z,20.30
2022-08-02T07:33:45.552Z,20.50
2022-08-02T07:36:34.394Z,22.00
2022-08-02T07:39:23.021Z,20.90
2022-08-02T07:42:13.499Z,20.70
2022-08-02T07:45:03.606Z,20.70
2022-08-02T07:47:51.862Z,20.50
2022-08-02T07:50:39.285Z,21.00
2022-08-02T07:53:50.251Z,20.50
2022-08-02T07:56:35.069Z,20.50
2022-08-02T07:59:44.640Z,22.10
2022-08-02T08:02:35.647Z,20.50
2022-08-02T08:05:26.832Z,20.40
2022-08-02T08:08:17.653Z,20.40
2022-08-02T08:11:07.226Z,20.50
2022-08-02T08:13:55.831Z,20.50
2022-08-02T08:16:43.379Z,20.60
2022-08-02T08:19:50.601Z,20.70
2022-08-02T08:22:39.526Z,19.90
2022-08-02T08:25:27.400Z,21.20
2022-08-02T08:28:19.805Z,21.10
2022-08-02T08:31:08.025Z,21.30
2022-08-02T08:33:58.255Z,21.40
2022-08-02T08:36:48.213Z,21.50
2022-08-02T08:39:36.056Z,21.70
2022-08-02T08:42:44.085Z,21.90
2022-08-02T08:45:32.164Z,22.00
2022-08-02T08:48:30.512Z,22.10
2022-08-02T08:51:22.670Z,22.30
2022-08-02T08:54:18.784Z,23.00
2022-08-02T08:57:06.995Z,22.50
2022-08-02T08:59:54.590Z,22.60
2022-08-02T09:02:44.044Z,22.70
2022-08-02T09:05:34.104Z,22.70
2022-08-02T09:08:21.908Z,22.80
2022-08-02T09:11:17.934Z,22.90
2022-08-02T09:14:07.044Z,23.00
2022-08-02T09:16:55.371Z,23.10
2022-08-02T09:19:46.609Z,23.10
2022-08-02T09:22:35.154Z,23.10
2022-08-02T09:25:22.649Z,23.30
2022-08-02T09:28:12.066Z,23.60
2022-08-02T09:31:04.572Z,23.70
2022-08-02T09:33:53.255Z,23.80
2022-08-02T09:36:42.866Z,23.80
2022-08-02T09:39:47.957Z,23.90
2022-08-02T09:42:42.348Z,24.00
2022-08-02T09:45:34.836Z,24.10
2022-08-02T09:48:22.125Z,24.20
2022-08-02T09:51:10.273Z,24.40
2022-08-02T09:54:10.072Z,24.50
2022-08-02T09:56:58.692Z,24.70
2022-08-02T09:59:53.843Z,24.80
2022-08-02T10:03:03.523Z,24.60
2022-08-02T10:05:56.210Z,24.60
2022-08-02T10:08:51.276Z,24.90
2022-08-02T10:11:41.545Z,25.00
2022-08-02T10:14:32.971Z,25.00
2022-08-02T10:17:23.097Z,25.10
2022-08-02T10:20:13.237Z,25.20
2022-08-02T10:23:02.337Z,25.40
2022-08-02T10:25:52.247Z,25.60
2022-08-02T10:28:40.061Z,25.70
2022-08-02T10:31:30.041Z,24.10
2022-08-02T10:34:19.927Z,25.80
2022-08-02T10:37:10.829Z,25.80
2022-08-02T10:40:05.351Z,26.00
2022-08-02T10:43:00.827Z,26.30
2022-08-02T10:45:55.408Z,26.50
2022-08-02T10:48:58.583Z,26.70
2022-08-02T10:52:12.999Z,26.70
2022-08-02T10:55:01.703Z,26.80
2022-08-02T10:58:09.674Z,26.80
2022-08-02T11:01:00.115Z,26.60
2022-08-02T11:03:50.105Z,26.40
2022-08-02T11:06:58.290Z,26.40
2022-08-02T11:09:53.327Z,26.50
2022-08-02T11:12:59.387Z,27.00
2022-08-02T11:15:54.243Z,27.30
2022-08-02T11:19:00.583Z,27.80
2022-08-02T11:22:01.113Z,27.90
2022-08-02T11:24:53.859Z,28.00
2022-08-02T11:27:42.066Z,27.90
2022-08-02T11:30:30.424Z,27.90
2022-08-02T11:33:18.606Z,27.80
2022-08-02T11:36:07.696Z,27.70
2022-08-02T11:39:11.660Z,27.70
2022-08-02T11:42:04.918Z,27.50
2022-08-02T11:44:54.933Z,27.10
2022-08-02T11:47:48.656Z,27.60
2022-08-02T11:50:36.528Z,27.80
2022-08-02T11:53:24.914Z,29.10
2022-08-02T11:56:14.255Z,27.70
2022-08-02T11:59:14.667Z,27.80
2022-08-02T12:02:06.078Z,27.80
2022-08-02T12:04:58.737Z,27.80
2022-08-02T12:07:47.603Z,27.80
2022-08-02T12:10:39.490Z,27.60
2022-08-02T12:13:27.178Z,27.60
2022-08-02T12:16:35.188Z,28.90
2022-08-02T12:19:28.992Z,27.70
2022-08-02T12:22:18.772Z,28.00
2022-08-02T12:25:34.293Z,28.00
2022-08-02T12:28:26.784Z,28.20
2022-08-02T12:31:18.596Z,28.30
2022-08-02T12:34:15.256Z,28.30
2022-08-02T12:37:03.960Z,28.20
2022-08-02T12:39:54.469Z,28.20
2022-08-02T12:42:47.681Z,27.10
2022-08-02T12:45:48.743Z,28.30
2022-08-02T12:48:48.384Z,28.30
2022-08-02T12:51:51.943Z,28.20
2022-08-02T12:54:44.309Z,28.40
2022-08-02T12:57:31.957Z,28.20
2022-08-02T13:00:24.513Z,28.20
2022-08-02T13:04:10.850Z,28.30
2022-08-02T13:06:40.836Z,28.60
2022-08-02T13:09:30.400Z,28.30
2022-08-02T13:12:21.520Z,28.60
2022-08-02T13:15:48.957Z,28.50
2022-08-02T13:18:30.584Z,28.40
2022-08-02T13:21:40.686Z,28.30
2022-08-02T13:24:38.410Z,28.30
2022-08-02T13:27:29.709Z,28.20
2022-08-02T13:30:20.636Z,26.70
2022-08-02T13:33:11.041Z,28.50
2022-08-02T13:35:58.860Z,28.70
2022-08-02T13:38:51.065Z,28.60
2022-08-02T13:41:42.081Z,28.90
2022-08-02T13:44:29.738Z,29.80
2022-08-02T13:47:26.610Z,28.40
2022-08-02T13:50:35.288Z,28.60
2022-08-02T13:53:28.668Z,28.70
2022-08-02T13:56:16.928Z,29.70
2022-08-02T13:59:54.250Z,28.80
2022-08-02T14:02:17.195Z,28.80
2022-08-02T14:05:10.528Z,28.80
2022-08-02T14:08:02.056Z,29.00
2022-08-02T14:10:50.206Z,29.20
2022-08-02T14:13:40.359Z,29.30
2022-08-02T14:16:39.568Z,29.30
2022-08-02T14:19:28.590Z,29.20
2022-08-02T14:22:16.356Z,29.10
2022-08-02T14:25:09.017Z,29.10
2022-08-02T14:28:00.212Z,29.00
2022-08-02T14:30:48.638Z,29.10
2022-08-02T14:33:45.798Z,29.10
2022-08-02T14:36:34.032Z,29.20
2022-08-02T14:39:22.295Z,29.30
2022-08-02T14:42:11.665Z,29.30
2022-08-02T14:44:59.214Z,29.20
2022-08-02T14:47:47.563Z,29.30
2022-08-02T14:50:38.847Z,29.30
2022-08-02T14:53:27.195Z,29.50
2022-08-02T14:56:27.505Z,29.70
2022-08-02T14:59:17.775Z,29.60
2022-08-02T15:02:09.141Z,29.50
2022-08-02T15:04:58.013Z,28.10
2022-08-02T15:07:49.680Z,29.50
2022-08-02T15:10:38.144Z,29.40
2022-08-02T15:13:25.725Z,29.40
2022-08-02T15:16:17.044Z,29.50
2022-08-02T15:19:06.707Z,29.50
2022-08-02T15:21:54.798Z,29.40
2022-08-02T15:24:49.920Z,29.70
2022-08-02T15:27:37.886Z,28.40
2022-08-02T15:30:28.615Z,29.80
2022-08-02T15:33:16.623Z,29.90
2022-08-02T15:36:05.722Z,30.10
2022-08-02T15:38:58.114Z,30.30
2022-08-02T15:41:48.631Z,30.30
2022-08-02T15:44:37.427Z,30.20
2022-08-02T15:47:27.431Z,30.00
2022-08-02T15:50:15.373Z,29.70
2022-08-02T15:53:06.527Z,30.20
2022-08-02T15:56:05.598Z,30.00
2022-08-02T15:59:02.404Z,30.10
2022-08-02T16:01:51.116Z,30.00
2022-08-02T16:04:39.035Z,29.90
2022-08-02T16:07:29.058Z,30.00
2022-08-02T16:10:18.495Z,30.10
2022-08-02T16:13:23.434Z,30.10
2022-08-02T16:16:14.870Z,30.30
2022-08-02T16:19:30.679Z,30.10
2022-08-02T16:22:13.511Z,30.10
2022-08-02T16:25:01.633Z,30.20
2022-08-02T16:28:07.322Z,30.10
2022-08-02T16:31:10.425Z,30.10
2022-08-02T16:34:00.879Z,29.30
2022-08-02T16:36:49.018Z,30.00
2022-08-02T16:39:37.321Z,30.10
2022-08-02T16:42:25.874Z,30.10
2022-08-02T16:45:14.305Z,30.10
2022-08-02T16:48:05.449Z,30.10
2022-08-02T16:50:57.880Z,30.10
2022-08-02T16:54:00.160Z,30.00
2022-08-02T16:56:49.939Z,30.00
2022-08-02T16:59:42.901Z,29.80
2022-08-02T17:02:31.867Z,29.60
2022-08-02T17:05:21.032Z,29.60
2022-08-02T17:08:17.338Z,29.50
2022-08-02T17:11:07.877Z,30.00
2022-08-02T17:13:58.470Z,29.30
2022-08-02T17:16:49.012Z,29.50
2022-08-02T17:19:39.758Z,29.50
2022-08-02T17:22:29.990Z,29.40
2022-08-02T17:25:19.953Z,29.20
2022-08-02T17:28:09.358Z,29.00
2022-08-02T17:31:00.159Z,29.10
2022-08-02T17:33:48.415Z,29.00
2022-08-02T17:36:39.293Z,29.00
2022-08-02T17:39:33.742Z,29.00
2022-08-02T17:42:25.175Z,28.90
2022-08-02T17:45:24.940Z,28.70
2022-08-02T17:48:15.474Z,28.40
2022-08-02T17:51:03.190Z,29.50
2022-08-02T17:53:51.454Z,27.80
2022-08-02T17:56:42.434Z,27.70
2022-08-02T18:02:41.953Z,27.60
2022-08-02T18:05:38.868Z,27.70
2022-08-02T18:08:29.797Z,27.80
2022-08-02T18:11:18.706Z,27.80
2022-08-02T18:14:27.547Z,27.90
2022-08-02T18:17:17.988Z,28.00
2022-08-02T18:20:10.907Z,28.20
2022-08-02T18:22:59.217Z,28.40
2022-08-02T18:25:51.795Z,28.40
2022-08-02T18:28:46.445Z,28.50
2022-08-02T18:31:50.753Z,28.50
2022-08-02T18:34:47.667Z,28.30
2022-08-02T18:37:43.706Z,28.30
2022-08-02T18:40:34.734Z,28.20
2022-08-02T18:43:25.132Z,27.70
2022-08-02T18:46:15.485Z,28.00
2022-08-02T18:49:13.414Z,27.70
2022-08-02T18:52:07.219Z,27.50
2022-08-02T18:54:56.162Z,27.40
2022-08-02T18:58:01.672Z,27.30
2022-08-02T19:00:54.761Z,27.20
2022-08-02T19:03:49.307Z,27.00
2022-08-02T19:06:37.039Z,27.00
2022-08-02T19:09:26.071Z,26.90
2022-08-02T19:12:13.774Z,26.80
2022-08-02T19:15:01.180Z,26.70
2022-08-02T19:17:57.234Z,26.70
2022-08-02T19:20:48.368Z,26.50
2022-08-02T19:23:35.943Z,26.50
2022-08-02T19:26:25.986Z,26.30
2022-08-02T19:29:13.366Z,26.10
2022-08-02T19:32:02.354Z,26.10
2022-08-02T19:34:50.166Z,26.00
2022-08-02T19:37:39.432Z,26.00
2022-08-02T19:40:29.028Z,25.70
2022-08-02T19:44:22.978Z,25.50
2022-08-02T19:46:27.045Z,25.40
2022-08-02T19:52:25.259Z,25.00
2022-08-02T19:55:58.295Z,25.10
2022-08-02T19:58:23.691Z,24.80
2022-08-02T20:01:14.172Z,25.10
2022-08-02T20:04:13.159Z,24.70
2022-08-02T20:07:01.761Z,24.60
2022-08-02T20:09:53.543Z,24.60
2022-08-02T20:12:44.614Z,24.50
2022-08-02T20:15:51.860Z,24.40
2022-08-02T20:18:46.657Z,24.40
2022-08-02T20:21:36.967Z,24.40
2022-08-02T20:24:29.804Z,24.20
2022-08-02T20:27:24.820Z,24.20
2022-08-02T20:30:18.200Z,24.10
2022-08-02T20:33:22.114Z,24.10
2022-08-02T20:36:10.151Z,24.20
2022-08-02T20:38:58.083Z,24.10
2022-08-02T20:41:53.038Z,24.10
2022-08-02T20:44:46.107Z,24.20
2022-08-02T20:50:52.280Z,24.20
2022-08-02T20:53:56.098Z,24.20
2022-08-02T20:56:46.926Z,23.90
2022-08-02T20:59:41.213Z,25.00
2022-08-02T21:02:30.834Z,23.70
2022-08-02T21:05:20.618Z,23.70
2022-08-02T21:08:30.540Z,23.60
2022-08-02T21:11:19.553Z,23.60
2022-08-02T21:14:13.029Z,23.50
2022-08-02T21:17:08.798Z,23.50
2022-08-02T21:19:58.939Z,23.50
2022-08-02T21:22:51.459Z,23.40
2022-08-02T21:25:50.696Z,23.40
2022-08-02T21:28:47.464Z,23.40
2022-08-02T21:31:39.559Z,23.40
2022-08-02T21:34:29.847Z,22.10
2022-08-02T21:37:17.665Z,24.70
2022-08-02T21:40:06.687Z,23.50
2022-08-02T21:43:00.544Z,23.60
2022-08-02T21:45:53.775Z,23.60
2022-08-02T21:48:44.498Z,23.60
2022-08-02T21:51:34.233Z,23.50
2022-08-02T21:54:22.715Z,23.50
2022-08-02T21:57:16.454Z,23.40
2022-08-02T22:00:13.337Z,23.40
2022-08-02T22:03:22.429Z,23.40
2022-08-02T22:06:08.928Z,23.30
2022-08-02T22:08:59.068Z,23.20
2022-08-02T22:11:47.094Z,23.10
2022-08-02T22:14:35.864Z,23.10
2022-08-02T22:17:50.654Z,22.80
2022-08-02T22:20:35.345Z,22.80
2022-08-02T22:23:38.788Z,22.80
2022-08-02T22:26:47.193Z,22.50
2022-08-02T22:29:36.755Z,22.60
2022-08-02T22:32:43.885Z,22.50
2022-08-02T22:35:39.799Z,22.50
2022-08-02T22:38:28.966Z,22.30
2022-08-02T22:41:20.515Z,22.10
2022-08-02T22:44:08.574Z,22.10
2022-08-02T22:46:56.724Z,22.20
2022-08-02T22:49:54.417Z,22.10
2022-08-02T22:52:46.881Z,22.80
2022-08-02T22:55:41.306Z,21.50
2022-08-02T22:58:30.084Z,21.50
2022-08-02T22:58:41.483Z,27.50
2022-08-02T22:59:06.357Z,25.00
2022-08-02T22:59:08.420Z,24.10
2022-08-02T23:01:20.149Z,21.30
2022-08-02T23:04:07.784Z,21.50
2022-08-02T23:06:57.938Z,21.20
2022-08-02T23:09:45.992Z,21.20
2022-08-02T23:12:34.300Z,21.20
2022-08-02T23:15:24.994Z,21.20
2022-08-02T23:18:30.658Z,21.40
2022-08-02T23:21:46.005Z,21.00
2022-08-02T23:24:30.879Z,20.90
2022-08-02T23:27:20.358Z,20.90
2022-08-02T23:30:15.461Z,21.00
2022-08-02T23:33:03.078Z,21.50
2022-08-02T23:35:53.720Z,20.80
2022-08-02T23:38:41.595Z,20.70
2022-08-02T23:41:36.248Z,20.90
2022-08-02T23:44:24.922Z,20.60
2022-08-02T23:47:17.187Z,20.50
2022-08-02T23:50:06.241Z,20.50
2022-08-02T23:52:54.128Z,20.40
2022-08-02T23:55:41.775Z,20.40
2022-08-02T23:58:32.890Z,20.40
